Time;durP1;ratioP1;P1;durP2;ratioP2;P2;SDS_P1;SDS_P2;PMS_P1;PMS_P2;Temp;Humidity;BMP_temperature;BMP_pressure;BME280_temperature;BME280_humidity;BME280_pressure;Samples;Min_cycle;Max_cycle;Signal;HPM_P1;HPM_P2
2021/03/20 00:01:21;;;;;;;142.85;72.10;;;102.50;1715.20;;;;;;4972869;28;20045;-76
2021/03/20 00:03:47;;;;;;;149.40;67.90;;;102.50;1740.80;;;;;;4973074;28;20520;-76
2021/03/20 00:06:14;;;;;;;150.00;70.95;;;102.50;1715.20;;;;;;5024529;28;20041;-77
2021/03/20 00:08:40;;;;;;;135.13;71.38;;;102.40;1740.80;;;;;;5073516;28;20036;-65
2021/03/20 00:11:06;;;;;;;157.38;74.75;;;102.40;1740.80;;;;;;5073884;28;20052;-68
2021/03/20 00:13:33;;;;;;;168.25;82.32;;;102.40;1740.80;;;;;;5073357;28;20374;-78
2021/03/20 00:15:59;;;;;;;185.40;89.90;;;102.40;1740.80;;;;;;5074292;28;20401;-70
2021/03/20 00:18:27;;;;;;;195.13;93.57;;;102.40;1740.80;;;;;;5073619;28;20032;-81
2021/03/20 00:20:53;;;;;;;194.50;95.72;;;102.40;1740.80;;;;;;5073788;28;20386;-79
2021/03/20 00:23:19;;;;;;;208.50;100.47;;;102.40;1740.80;;;;;;5073609;28;20021;-78
2021/03/20 00:25:46;;;;;;;202.75;97.47;;;102.40;1740.80;;;;;;5073701;28;20024;-79
2021/03/20 00:28:21;;;;;;;217.25;106.70;;;102.40;1715.20;;;;;;5073662;28;20020;-78
2021/03/20 00:30:46;;;;;;;;;;;102.40;1740.80;;;;;;5056129;28;20385;-77
2021/03/20 00:33:12;;;;;;;194.13;95.25;;;77.70;1740.80;;;;;;5073509;28;19904;-78
2021/03/20 00:35:38;;;;;;;198.63;100.47;;;77.70;1740.80;;;;;;5073376;28;20021;-66
2021/03/20 00:38:04;;;;;;;183.77;92.85;;;77.70;1740.80;;;;;;5073028;28;20057;-72
2021/03/20 00:40:31;;;;;;;164.45;82.70;;;77.70;1740.80;;;;;;5073407;28;20516;-71
2021/03/20 00:42:57;;;;;;;159.63;83.35;;;77.70;1715.20;;;;;;5073345;28;20040;-65
2021/03/20 00:45:25;;;;;;;159.35;81.53;;;77.70;1715.20;;;;;;5073259;28;20055;-69
2021/03/20 00:47:52;;;;;;;164.60;81.88;;;77.70;1715.20;;;;;;5076986;28;20419;-65
2021/03/20 00:50:22;;;;;;;158.43;83.50;;;77.70;1740.80;;;;;;5076715;28;20040;-70
2021/03/20 00:52:48;;;;;;;172.70;87.07;;;77.70;1740.80;;;;;;5059224;28;20025;-79
2021/03/20 00:55:14;;;;;;;177.02;83.07;;;77.60;1740.80;;;;;;5076939;28;20032;-78
2021/03/20 00:57:41;;;;;;;174.13;88.03;;;77.60;1740.80;;;;;;5076949;28;20025;-78
2021/03/20 01:00:19;;;;;;;193.02;93.88;;;77.60;1740.80;;;;;;5076954;28;20115;-66
2021/03/20 01:02:45;;;;;;;198.93;95.72;;;77.60;1740.80;;;;;;5076818;28;20052;-67
2021/03/20 01:05:12;;;;;;;193.88;92.45;;;77.60;1740.80;;;;;;5076691;28;20067;-68
2021/03/20 01:07:38;;;;;;;196.73;96.30;;;77.60;1740.80;;;;;;5076713;28;20432;-78
2021/03/20 01:10:08;;;;;;;208.25;96.00;;;77.50;1740.80;;;;;;5076624;28;20033;-72
2021/03/20 01:12:33;;;;;;;195.13;95.43;;;77.50;1740.80;;;;;;5076782;28;20381;-71
2021/03/20 01:14:59;;;;;;;188.32;91.40;;;77.50;1715.20;;;;;;5076539;28;20028;-78
2021/03/20 01:17:25;;;;;;;180.45;88.55;;;77.50;1715.20;;;;;;5076619;28;20029;-78
2021/03/20 01:19:51;;;;;;;173.70;86.68;;;77.50;1715.20;;;;;;5075843;28;20470;-65
2021/03/20 01:22:16;;;;;;;169.55;81.78;;;77.50;1715.20;;;;;;5076699;28;20021;-76
2021/03/20 01:24:42;;;;;;;198.43;91.20;;;77.50;1740.80;;;;;;5076530;28;20024;-65
2021/03/20 01:27:08;;;;;;;226.15;102.13;;;77.50;1740.80;;;;;;5076217;28;20470;-78
2021/03/20 01:29:33;;;;;;;222.80;99.38;;;77.50;1740.80;;;;;;5076134;28;20111;-65
2021/03/20 01:31:59;;;;;;;217.13;97.80;;;77.50;1740.80;;;;;;5076287;28;20021;-79
2021/03/20 01:34:25;;;;;;;217.75;93.57;;;77.50;1740.80;;;;;;5076012;28;20419;-68
2021/03/20 01:36:50;;;;;;;207.02;90.10;;;77.50;1740.80;;;;;;5075822;28;20041;-70
2021/03/20 01:39:16;;;;;;;204.43;87.00;;;77.40;1740.80;;;;;;5076469;28;20115;-86
2021/03/20 01:41:44;;;;;;;192.50;86.72;;;77.40;1740.80;;;;;;5076431;28;20511;-66
2021/03/20 01:44:22;;;;;;;193.45;85.15;;;77.40;1740.80;;;;;;5076632;28;20032;-77
2021/03/20 01:46:52;;;;;;;184.07;83.35;;;77.40;1715.20;;;;;;5076161;28;20134;-84
2021/03/20 01:49:20;;;;;;;175.52;79.50;;;77.40;1740.80;;;;;;5075649;28;20043;-80
2021/03/20 01:52:02;;;;;;;171.15;82.97;;;77.30;1740.80;;;;;;5075836;28;20032;-67
2021/03/20 01:54:48;;;;;;;169.25;77.97;;;77.30;1766.40;;;;;;5076263;28;20024;-76
2021/03/20 01:57:20;;;;;;;165.32;78.88;;;77.30;1740.80;;;;;;5074092;28;20393;-73
2021/03/20 01:59:47;;;;;;;158.88;73.22;;;77.30;1740.80;;;;;;5075495;28;20158;-74
2021/03/20 02:02:13;;;;;;;155.65;71.35;;;77.30;1740.80;;;;;;5075838;28;20095;-75
2021/03/20 02:04:38;;;;;;;157.52;71.70;;;77.30;1740.80;;;;;;5075418;28;20540;-74
2021/03/20 02:07:05;;;;;;;143.48;69.40;;;77.30;1740.80;;;;;;5075405;28;20401;-75
2021/03/20 02:09:31;;;;;;;147.48;69.32;;;77.20;1740.80;;;;;;5075402;28;20037;-74
2021/03/20 02:12:06;;;;;;;138.65;70.07;;;77.20;1766.40;;;;;;5075248;28;20031;-76
2021/03/20 02:15:14;;;;;;;141.27;72.13;;;77.20;1740.80;;;;;;5075372;28;20028;-75
2021/03/20 02:17:47;;;;;;;141.88;70.13;;;77.20;1740.80;;;;;;4974424;28;20041;-75
2021/03/20 02:20:34;;;;;;;161.75;74.97;;;77.20;1740.80;;;;;;4974477;28;20600;-76
2021/03/20 02:23:09;;;;;;;149.02;72.05;;;77.20;1740.80;;;;;;4974396;28;20026;-75
2021/03/20 02:25:56;;;;;;;145.20;71.38;;;77.10;1740.80;;;;;;4974218;28;20397;-75
2021/03/20 02:28:55;;;;;;;141.38;68.53;;;77.10;1766.40;;;;;;4974245;28;20054;-75
2021/03/20 02:31:58;;;;;;;138.48;66.63;;;77.10;1766.40;;;;;;4974490;28;20054;-75
2021/03/20 02:34:38;;;;;;;140.50;67.53;;;77.10;1766.40;;;;;;4974061;28;20125;-75
2021/03/20 02:37:25;;;;;;;145.75;69.75;;;77.10;1766.40;;;;;;4973795;28;20138;-74
2021/03/20 02:40:06;;;;;;;131.10;67.10;;;77.10;1766.40;;;;;;4974178;28;20204;-75
2021/03/20 02:42:46;;;;;;;141.98;69.15;;;77.10;1740.80;;;;;;4973953;28;20500;-75
2021/03/20 02:45:39;;;;;;;141.05;66.82;;;77.10;1740.80;;;;;;4973957;28;20027;-75
2021/03/20 02:48:16;;;;;;;142.23;68.38;;;77.00;1740.80;;;;;;4973880;28;20031;-74
2021/03/20 02:51:23;;;;;;;139.73;66.40;;;77.00;1740.80;;;;;;4973615;28;20049;-75
2021/03/20 02:53:54;;;;;;;141.13;64.78;;;77.00;1740.80;;;;;;4954557;28;20042;-66
2021/03/20 02:56:27;;;;;;;133.85;65.70;;;77.00;1740.80;;;;;;4957655;28;20492;-65
2021/03/20 02:59:06;;;;;;;134.95;66.43;;;77.00;1740.80;;;;;;4973382;28;20081;-67
2021/03/20 03:01:33;;;;;;;137.52;62.35;;;76.90;1740.80;;;;;;4973563;28;20027;-70
2021/03/20 03:04:01;;;;;;;140.50;63.40;;;77.00;1740.80;;;;;;4973664;28;20066;-67
2021/03/20 03:06:27;;;;;;;141.82;65.63;;;77.00;1740.80;;;;;;4973486;28;20350;-68
2021/03/20 03:09:35;;;;;;;131.32;61.22;;;77.00;1740.80;;;;;;4972846;28;20041;-65
2021/03/20 03:12:04;;;;;;;124.07;60.70;;;76.90;1740.80;;;;;;4915951;29;20032;-65
2021/03/20 03:14:39;;;;;;;132.43;63.25;;;76.90;1740.80;;;;;;4915937;29;20032;-66
2021/03/20 03:17:07;;;;;;;135.05;62.63;;;76.90;1740.80;;;;;;4916057;29;20115;-67
2021/03/20 03:19:45;;;;;;;117.95;61.22;;;76.90;1740.80;;;;;;4915788;29;20043;-68
2021/03/20 03:22:17;;;;;;;120.85;59.60;;;76.90;1740.80;;;;;;4915718;29;20039;-66
2021/03/20 03:24:44;;;;;;;132.50;58.92;;;76.90;1766.40;;;;;;4915768;29;20075;-67
2021/03/20 03:27:14;;;;;;;136.63;60.38;;;76.80;1766.40;;;;;;4916170;29;20024;-66
2021/03/20 03:29:42;;;;;;;136.90;66.82;;;76.80;1766.40;;;;;;4950843;28;20421;-66
2021/03/20 03:32:14;;;;;;;159.48;76.38;;;76.80;1766.40;;;;;;4973390;28;20026;-66
2021/03/20 03:35:02;;;;;;;192.35;83.55;;;76.80;1792.00;;;;;;4972882;28;20027;-66
2021/03/20 03:37:42;;;;;;;189.27;84.45;;;76.80;1766.40;;;;;;4918432;29;20441;-65
2021/03/20 03:40:24;;;;;;;185.18;85.43;;;76.80;1792.00;;;;;;4934701;29;20067;-65
2021/03/20 03:42:51;;;;;;;184.85;84.32;;;76.80;1792.00;;;;;;4934508;29;20042;-65
2021/03/20 03:45:19;;;;;;;179.65;85.25;;;76.80;1792.00;;;;;;4934398;29;20031;-65
2021/03/20 03:47:47;;;;;;;186.65;87.95;;;52.10;1792.00;;;;;;4942954;28;20039;-65
2021/03/20 03:50:25;;;;;;;180.18;85.32;;;52.10;1792.00;;;;;;5011750;28;20626;-65
2021/03/20 03:52:51;;;;;;;155.23;78.22;;;52.10;1792.00;;;;;;5011832;28;20117;-65
2021/03/20 03:55:17;;;;;;;142.48;72.38;;;52.10;1792.00;;;;;;5011901;28;20120;-65
2021/03/20 03:57:50;;;;;;;137.23;70.50;;;52.10;1792.00;;;;;;5011975;28;20076;-65
2021/03/20 04:00:48;;;;;;;124.82;67.90;;;76.80;1792.00;;;;;;5011804;28;20028;-65
2021/03/20 04:03:32;;;;;;;135.20;68.32;;;76.80;1792.00;;;;;;5011641;28;20471;-66
2021/03/20 04:06:05;;;;;;;128.32;65.70;;;76.80;1792.00;;;;;;4995272;28;20052;-65
2021/03/20 04:09:08;;;;;;;122.38;62.78;;;76.80;1792.00;;;;;;5011546;28;20041;-66
2021/03/20 04:12:00;;;;;;;124.97;63.13;;;52.10;1792.00;;;;;;5011565;28;20068;-66
2021/03/20 04:14:40;;;;;;;126.55;61.53;;;52.10;1817.60;;;;;;5034672;28;20029;-65
2021/03/20 04:17:12;;;;;;;123.88;61.58;;;52.10;1817.60;;;;;;5073317;28;20024;-65
2021/03/20 04:20:14;;;;;;;115.20;59.42;;;52.00;1817.60;;;;;;5073374;28;20031;-65
2021/03/20 04:22:44;;;;;;;108.10;55.50;;;52.00;1817.60;;;;;;5077215;28;20028;-72
2021/03/20 04:25:09;;;;;;;110.53;55.13;;;52.00;1817.60;;;;;;5077499;28;20021;-66
2021/03/20 04:27:42;;;;;;;114.45;54.40;;;52.00;1817.60;;;;;;5077366;28;20028;-65
2021/03/20 04:30:13;;;;;;;108.88;53.40;;;52.00;1817.60;;;;;;5077373;28;20039;-71
2021/03/20 04:32:49;;;;;;;111.88;55.20;;;51.90;1817.60;;;;;;5077045;28;20024;-67
2021/03/20 04:35:29;;;;;;;127.45;61.00;;;51.90;1817.60;;;;;;5059370;28;20382;-69
2021/03/20 04:37:56;;;;;;;135.30;66.93;;;51.90;1817.60;;;;;;5076804;28;20048;-67
2021/03/20 04:40:30;;;;;;;159.38;72.20;;;51.90;1817.60;;;;;;5076914;28;20040;-65
2021/03/20 04:42:57;;;;;;;157.53;72.37;;;51.90;1817.60;;;;;;5077035;28;20038;-65
2021/03/20 04:45:40;;;;;;;143.93;69.63;;;51.90;1817.60;;;;;;5077051;28;20378;-68
2021/03/20 04:48:23;;;;;;;156.20;74.88;;;51.90;1817.60;;;;;;5076583;28;20103;-64
2021/03/20 04:50:57;;;;;;;146.90;70.50;;;51.90;1817.60;;;;;;5076782;28;20040;-68
2021/03/20 04:53:24;;;;;;;146.57;70.50;;;51.90;1817.60;;;;;;5076888;28;20478;-67
2021/03/20 04:55:55;;;;;;;140.32;69.38;;;51.90;1817.60;;;;;;5076619;28;20116;-69
2021/03/20 04:58:41;;;;;;;144.93;70.85;;;51.90;1817.60;;;;;;5076594;28;20493;-66
2021/03/20 05:01:19;;;;;;;151.27;73.28;;;51.90;1817.60;;;;;;5076667;28;20105;-65
2021/03/20 05:03:51;;;;;;;153.23;71.72;;;51.90;1817.60;;;;;;5076802;28;20060;-66
2021/03/20 05:06:22;;;;;;;152.65;75.47;;;51.90;1817.60;;;;;;5076646;28;20110;-65
2021/03/20 05:09:04;;;;;;;141.77;68.65;;;51.90;1817.60;;;;;;5076250;28;20024;-65
2021/03/20 05:11:46;;;;;;;136.40;66.82;;;51.90;1817.60;;;;;;5076676;28;20122;-65
2021/03/20 05:14:15;;;;;;;136.57;67.15;;;51.90;1843.20;;;;;;5076515;28;20032;-65
2021/03/20 05:16:47;;;;;;;143.68;70.97;;;51.90;1843.20;;;;;;5058754;28;20377;-66
2021/03/20 05:19:14;;;;;;;129.05;68.32;;;51.90;1843.20;;;;;;5076514;28;20378;-65
2021/03/20 05:21:42;;;;;;;136.10;73.10;;;52.00;1843.20;;;;;;5076510;28;20082;-65
2021/03/20 05:24:14;;;;;;;152.07;74.32;;;52.00;1843.20;;;;;;5076119;28;20463;-65
2021/03/20 05:26:41;;;;;;;140.55;73.35;;;52.00;1868.80;;;;;;5076100;28;20115;-65
2021/03/20 05:29:06;;;;;;;130.82;71.68;;;52.10;1843.20;;;;;;5076267;28;20058;-75
2021/03/20 05:31:33;;;;;;;136.60;73.10;;;52.10;1868.80;;;;;;5076117;28;20522;-66
2021/03/20 05:34:00;;;;;;;134.45;72.00;;;76.80;1868.80;;;;;;5076204;28;20112;-67
2021/03/20 05:36:26;;;;;;;140.57;73.25;;;76.80;1868.80;;;;;;5076158;28;20033;-70
2021/03/20 05:38:52;;;;;;;144.30;76.20;;;76.90;1868.80;;;;;;5075804;28;20032;-76
2021/03/20 05:41:21;;;;;;;164.77;83.18;;;76.90;1868.80;;;;;;5076357;28;20466;-73
2021/03/20 05:44:02;;;;;;;163.07;83.75;;;77.00;1868.80;;;;;;5076251;28;20074;-64
2021/03/20 05:46:42;;;;;;;158.75;80.20;;;77.00;1894.40;;;;;;5075147;28;20021;-72
2021/03/20 05:49:24;;;;;;;152.32;79.93;;;77.10;1868.80;;;;;;5058284;28;20038;-67
2021/03/20 05:52:22;;;;;;;152.65;81.50;;;77.20;1868.80;;;;;;5078284;28;20031;-66
2021/03/20 05:55:15;;;;;;;136.25;75.68;;;77.30;1894.40;;;;;;5075085;28;20425;-64
2021/03/20 05:58:10;;;;;;;134.10;72.25;;;77.40;1894.40;;;;;;5075513;28;20035;-72
2021/03/20 06:00:59;;;;;;;140.60;76.40;;;77.40;1894.40;;;;;;5075188;28;20043;-69
2021/03/20 06:03:51;;;;;;;153.68;78.28;;;77.50;1894.40;;;;;;5074542;28;20024;-72
2021/03/20 06:06:17;;;;;;;149.88;77.00;;;77.50;1894.40;;;;;;5075306;28;20108;-68
2021/03/20 06:08:50;;;;;;;143.43;78.70;;;77.60;1894.40;;;;;;5054391;28;20318;-67
2021/03/20 06:11:35;;;;;;;136.35;76.18;;;77.70;1894.40;;;;;;5055446;28;20067;-65
2021/03/20 06:14:33;;;;;;;129.73;72.40;;;77.70;1868.80;;;;;;5077551;28;20017;-65
2021/03/20 06:17:43;;;;;;;127.13;69.68;;;77.70;1894.40;;;;;;5067940;28;20032;-64
2021/03/20 06:20:17;;;;;;;125.15;67.95;;;102.40;1894.40;;;;;;5037505;28;20525;-70
2021/03/20 06:22:58;;;;;;;123.82;72.25;;;102.50;1868.80;;;;;;5055312;28;20071;-72
2021/03/20 06:25:53;;;;;;;133.52;77.25;;;102.60;1894.40;;;;;;5055133;28;20481;-77
2021/03/20 06:28:27;;;;;;;131.30;74.65;;;102.60;1894.40;;;;;;5051017;28;20033;-65
2021/03/20 06:30:59;;;;;;;147.70;79.53;;;102.70;1894.40;;;;;;5055097;28;20055;-65
2021/03/20 06:33:45;;;;;;;135.48;78.53;;;102.70;1894.40;;;;;;5055058;28;20043;-65
2021/03/20 06:36:43;;;;;;;125.95;74.07;;;102.90;1868.80;;;;;;5054822;28;20167;-64
2021/03/20 06:39:18;;;;;;;128.65;74.35;;;103.00;1868.80;;;;;;5054932;28;20036;-65
2021/03/20 06:41:52;;;;;;;;;;;103.10;1894.40;;;;;;5055317;28;20029;-64
2021/03/20 06:44:30;;;;;;;109.90;65.38;;;103.30;1868.80;;;;;;5054029;28;19905;-65
2021/03/20 06:46:57;;;;;;;111.50;67.35;;;128.10;1920.00;;;;;;5054541;28;20033;-65
2021/03/20 06:49:30;;;;;;;100.88;61.58;;;128.30;1920.00;;;;;;5054718;28;20419;-65
2021/03/20 06:51:59;;;;;;;100.35;60.97;;;128.50;1920.00;;;;;;5054720;28;20059;-65
2021/03/20 06:54:27;;;;;;;89.68;56.10;;;128.80;1894.40;;;;;;5054614;28;20431;-65
2021/03/20 06:56:53;;;;;;;113.85;61.63;;;153.60;1843.20;;;;;;5034681;28;20040;-65
2021/03/20 06:59:22;;;;;;;120.13;72.00;;;153.90;1843.20;;;;;;5051377;28;20029;-71
2021/03/20 07:02:14;;;;;;;131.15;78.90;;;154.10;1843.20;;;;;;5045667;28;20020;-73
2021/03/20 07:04:47;;;;;;;126.15;74.85;;;154.40;1766.40;;;;;;5053934;28;20028;-66
2021/03/20 07:08:00;;;;;;;118.80;72.72;;;179.20;1766.40;;;;;;5053312;28;20017;-65
2021/03/20 07:10:38;;;;;;;110.90;64.95;;;179.50;1715.20;;;;;;4972284;28;20488;-71
2021/03/20 07:13:05;;;;;;;105.05;63.75;;;179.80;1715.20;;;;;;4973179;28;20503;-80
2021/03/20 07:15:31;;;;;;;106.72;61.78;;;180.00;1689.60;;;;;;4972221;28;20060;-74
2021/03/20 07:18:35;;;;;;;99.95;61.22;;;204.90;1664.00;;;;;;4973084;28;20385;-67
2021/03/20 07:21:04;;;;;;;98.03;57.65;;;205.10;1715.20;;;;;;4972038;28;20122;-65
2021/03/20 07:23:30;;;;;;;108.78;63.63;;;205.40;1612.80;;;;;;4972464;28;20030;-64
2021/03/20 07:26:16;;;;;;;109.65;63.63;;;205.60;1612.80;;;;;;4972993;28;20027;-78
2021/03/20 07:28:49;;;;;;;109.07;64.28;;;230.40;1587.20;;;;;;4990237;28;20039;-64
2021/03/20 07:31:15;;;;;;;109.57;64.43;;;230.60;1561.60;;;;;;4992301;28;20502;-68
2021/03/20 07:33:47;;;;;;;113.75;63.33;;;230.90;1536.00;;;;;;4991360;28;20038;-64
2021/03/20 07:36:36;;;;;;;106.22;64.13;;;231.00;1510.40;;;;;;4991309;28;20124;-75
2021/03/20 07:39:21;;;;;;;93.93;59.22;;;231.30;1510.40;;;;;;4991335;28;20057;-64
2021/03/20 07:41:53;;;;;;;87.57;49.92;;;256.20;1459.20;;;;;;4991788;28;20169;-80
2021/03/20 07:44:19;;;;;;;78.10;49.20;;;256.60;1433.60;;;;;;4991139;28;20036;-65
2021/03/20 07:46:45;;;;;;;74.38;42.83;;;256.70;1382.40;;;;;;5025784;28;20033;-64
2021/03/20 07:49:28;;;;;;;66.15;42.30;;;281.60;1382.40;;;;;;5066118;28;20045;-64
2021/03/20 07:52:26;;;;;;;60.42;37.70;;;281.90;1331.20;;;;;;5061928;28;20017;-66
2021/03/20 07:55:16;;;;;;;63.85;39.58;;;282.20;1382.40;;;;;;5070740;28;20359;-80
2021/03/20 07:57:58;;;;;;;59.05;38.20;;;282.40;1305.60;;;;;;5072678;28;20021;-65
2021/03/20 08:00:31;;;;;;;52.30;33.20;;;307.30;1305.60;;;;;;5069540;28;20471;-80
2021/03/20 08:03:17;;;;;;;43.93;29.60;;;307.50;1280.00;;;;;;5065717;28;20024;-73
2021/03/20 08:05:43;;;;;;;34.97;23.02;;;307.70;1228.80;;;;;;5066520;28;20028;-67
2021/03/20 08:08:15;;;;;;;35.15;22.70;;;308.00;1228.80;;;;;;5040077;28;20108;-69
2021/03/20 08:10:55;;;;;;;32.17;22.17;;;332.80;1254.40;;;;;;5047781;28;20040;-82
2021/03/20 08:13:48;;;;;;;26.63;19.80;;;333.00;1228.80;;;;;;5072760;28;20492;-79
2021/03/20 08:16:18;;;;;;;22.70;15.63;;;333.20;1177.60;;;;;;5065631;28;20024;-77
2021/03/20 08:18:45;;;;;;;26.15;17.85;;;333.30;1126.40;;;;;;5061679;28;20029;-69
2021/03/20 08:21:26;;;;;;;27.83;18.50;;;333.40;1126.40;;;;;;5061572;28;20021;-66
2021/03/20 08:24:10;;;;;;;21.30;17.30;;;333.50;1126.40;;;;;;5072854;28;20028;-64
2021/03/20 08:26:57;;;;;;;23.08;17.52;;;333.50;1126.40;;;;;;5068776;28;20525;-75
2021/03/20 08:29:32;;;;;;;26.95;18.27;;;333.60;1126.40;;;;;;5065122;28;20445;-65
2021/03/20 08:31:58;;;;;;;;;;;333.70;1126.40;;;;;;5073171;28;20028;-67
2021/03/20 08:34:38;;;;;;;25.55;17.00;;;358.40;1126.40;;;;;;5054721;28;20047;-65
2021/03/20 08:37:42;;;;;;;24.63;17.63;;;358.50;1075.20;;;;;;5065450;28;20044;-82
2021/03/20 08:40:31;;;;;;;20.15;15.63;;;358.80;1049.60;;;;;;4968645;28;20031;-72
2021/03/20 08:43:22;;;;;;;23.48;16.25;;;358.90;998.40;;;;;;4965167;28;20034;-81
2021/03/20 08:46:06;;;;;;;19.88;13.85;;;359.00;998.40;;;;;;4971452;28;20528;-66
2021/03/20 08:49:04;;;;;;;25.67;16.02;;;359.10;972.80;;;;;;4972071;28;20484;-83
2021/03/20 08:51:55;;;;;;;23.88;15.48;;;359.30;998.40;;;;;;4976225;28;20109;-67
2021/03/20 08:54:42;;;;;;;18.88;14.98;;;384.00;972.80;;;;;;4974590;28;20065;-66
2021/03/20 08:57:18;;;;;;;20.90;16.15;;;384.20;998.40;;;;;;4975289;28;20656;-66
2021/03/20 08:59:52;;;;;;;20.85;17.00;;;384.40;947.20;;;;;;4972049;28;20030;-73
2021/03/20 09:02:31;;;;;;;23.20;17.98;;;384.60;947.20;;;;;;4972192;28;20043;-83
2021/03/20 09:05:04;;;;;;;22.70;16.30;;;384.70;947.20;;;;;;4971791;28;20102;-68
2021/03/20 09:07:45;;;;;;;26.43;18.53;;;384.80;921.60;;;;;;4973344;28;20034;-66
2021/03/20 09:10:20;;;;;;;21.50;17.20;;;384.90;921.60;;;;;;4974416;28;20047;-74
2021/03/20 09:13:05;;;;;;;21.38;16.85;;;409.70;921.60;;;;;;4974685;28;20078;-70
2021/03/20 09:15:33;;;;;;;22.75;16.15;;;409.80;921.60;;;;;;4975214;28;20154;-66
2021/03/20 09:18:02;;;;;;;24.80;16.40;;;409.90;896.00;;;;;;5056738;28;20103;-69
2021/03/20 09:20:51;;;;;;;21.40;16.20;;;410.10;921.60;;;;;;5057918;28;20036;-66
2021/03/20 09:23:26;;;;;;;22.77;17.00;;;410.30;870.40;;;;;;5077067;28;20048;-80
2021/03/20 09:25:55;;;;;;;21.63;16.63;;;410.40;819.20;;;;;;5076539;28;20095;-82
2021/03/20 09:28:30;;;;;;;29.00;15.95;;;410.50;844.80;;;;;;5076461;28;20103;-66
2021/03/20 09:31:00;;;;;;;27.58;17.48;;;410.50;819.20;;;;;;5069259;28;20033;-66
2021/03/20 09:33:26;;;;;;;30.60;21.98;;;410.50;819.20;;;;;;5076362;28;20139;-67
2021/03/20 09:36:00;;;;;;;22.17;16.90;;;435.20;819.20;;;;;;5076109;28;20490;-66
2021/03/20 09:38:35;;;;;;;21.15;14.55;;;410.50;793.60;;;;;;5076243;28;20090;-66
2021/03/20 09:41:13;;;;;;;18.10;14.18;;;410.40;793.60;;;;;;5076285;28;20367;-71
2021/03/20 09:43:47;;;;;;;18.63;15.15;;;410.30;819.20;;;;;;5076252;28;20021;-67
2021/03/20 09:46:49;;;;;;;23.50;15.85;;;410.20;844.80;;;;;;5076321;28;20024;-68
2021/03/20 09:49:17;;;;;;;24.05;18.40;;;410.10;844.80;;;;;;4975247;28;20042;-80
2021/03/20 09:51:52;;;;;;;30.48;19.88;;;409.80;844.80;;;;;;4975163;28;20045;-76
2021/03/20 09:59:42;;;;;;;20.58;15.73;;;409.80;844.80;;;;;;4975041;28;20110;-67
2021/03/20 10:02:11;;;;;;;22.38;15.98;;;409.90;819.20;;;;;;4975225;28;20113;-80
2021/03/20 10:04:55;;;;;;;22.15;15.18;;;410.10;819.20;;;;;;4975262;28;20073;-66
2021/03/20 10:07:21;;;;;;;20.10;13.65;;;410.30;819.20;;;;;;4974746;28;20377;-66
2021/03/20 10:10:04;;;;;;;21.33;16.02;;;410.40;793.60;;;;;;4974756;28;20227;-67
2021/03/20 10:12:42;;;;;;;19.05;15.02;;;435.20;793.60;;;;;;4975039;28;20074;-67
2021/03/20 10:15:12;;;;;;;19.48;13.63;;;435.40;768.00;;;;;;4975063;28;20150;-68
2021/03/20 10:18:06;;;;;;;17.98;13.40;;;435.60;768.00;;;;;;4958407;28;20031;-82
2021/03/20 10:20:47;;;;;;;18.80;13.77;;;435.80;742.40;;;;;;4974041;28;20259;-67
2021/03/20 10:23:31;;;;;;;17.95;12.77;;;436.00;768.00;;;;;;4974524;28;20265;-67
2021/03/20 10:26:00;;;;;;;19.35;13.07;;;460.80;768.00;;;;;;5074258;28;20059;-67
2021/03/20 10:28:30;;;;;;;21.52;13.57;;;436.00;716.80;;;;;;5075094;28;20029;-67
2021/03/20 10:31:02;;;;;;;26.25;15.75;;;435.70;742.40;;;;;;5075049;28;20033;-70
2021/03/20 10:33:33;;;;;;;19.63;14.88;;;435.40;742.40;;;;;;5074998;28;20111;-80
2021/03/20 10:36:26;;;;;;;20.38;15.45;;;435.20;742.40;;;;;;5075128;28;20174;-67
2021/03/20 10:38:52;;;;;;;20.40;14.88;;;410.30;768.00;;;;;;4974597;28;20069;-81
2021/03/20 10:41:47;;;;;;;18.80;12.85;;;410.10;742.40;;;;;;4974609;28;20035;-67
2021/03/20 10:44:26;;;;;;;16.70;13.10;;;410.00;742.40;;;;;;4974850;28;20117;-67
2021/03/20 10:47:12;;;;;;;21.40;15.15;;;410.00;716.80;;;;;;4974380;28;20187;-67
2021/03/20 10:49:48;;;;;;;23.88;16.60;;;409.90;716.80;;;;;;4957826;28;20047;-81
2021/03/20 10:52:20;;;;;;;38.78;20.20;;;409.70;742.40;;;;;;4973957;28;20101;-67
2021/03/20 10:54:49;;;;;;;25.27;18.55;;;384.80;793.60;;;;;;4973826;28;20046;-67
2021/03/20 10:57:27;;;;;;;52.78;35.58;;;384.50;793.60;;;;;;4973839;28;20035;-66
2021/03/20 10:59:53;;;;;;;46.33;27.35;;;384.20;844.80;;;;;;4974103;28;20518;-67
2021/03/20 11:02:22;;;;;;;31.83;21.38;;;384.00;844.80;;;;;;4973857;28;20113;-67
2021/03/20 11:04:49;;;;;;;30.05;20.05;;;359.20;844.80;;;;;;4973597;28;20026;-66
2021/03/20 11:07:17;;;;;;;39.17;23.73;;;359.10;844.80;;;;;;4973611;28;20037;-67
2021/03/20 11:09:43;;;;;;;36.38;22.15;;;359.10;870.40;;;;;;4973501;28;20416;-66
2021/03/20 11:12:28;;;;;;;32.42;20.20;;;359.10;870.40;;;;;;4973563;28;20103;-66
2021/03/20 11:15:00;;;;;;;35.88;22.60;;;359.00;844.80;;;;;;4984496;28;20382;-67
2021/03/20 11:17:30;;;;;;;34.00;22.77;;;358.90;896.00;;;;;;5070902;28;20020;-67
2021/03/20 11:20:08;;;;;;;40.30;24.95;;;358.70;870.40;;;;;;5074217;28;20537;-67
2021/03/20 11:22:38;;;;;;;32.55;21.20;;;358.60;870.40;;;;;;5074045;28;20035;-66
2021/03/20 11:25:26;;;;;;;31.77;20.38;;;358.50;896.00;;;;;;5074175;28;20028;-66
2021/03/20 11:28:05;;;;;;;29.40;19.73;;;358.40;896.00;;;;;;5074321;28;20024;-81
2021/03/20 11:30:51;;;;;;;32.42;22.60;;;333.60;896.00;;;;;;5073454;28;20031;-66
2021/03/20 11:33:26;;;;;;;36.33;22.65;;;333.50;896.00;;;;;;5074165;28;20079;-67
2021/03/20 11:36:00;;;;;;;30.25;21.30;;;333.30;921.60;;;;;;5073823;28;20029;-66
2021/03/20 11:38:27;;;;;;;25.17;18.40;;;333.30;921.60;;;;;;5073843;28;20032;-66
2021/03/20 11:41:01;;;;;;;31.05;20.40;;;333.20;921.60;;;;;;5073917;28;20020;-66
2021/03/20 11:43:47;;;;;;;29.10;20.63;;;333.10;947.20;;;;;;5073713;28;20020;-71
2021/03/20 11:46:33;;;;;;;31.92;20.42;;;333.10;947.20;;;;;;5072567;28;20031;-69
2021/03/20 11:49:06;;;;;;;27.95;19.52;;;333.10;972.80;;;;;;5065064;28;20058;-69
2021/03/20 11:51:36;;;;;;;20.88;15.02;;;333.10;972.80;;;;;;5063058;28;20025;-75
2021/03/20 11:54:29;;;;;;;19.73;15.80;;;333.00;972.80;;;;;;5061890;28;20017;-71
2021/03/20 11:57:22;;;;;;;24.35;16.48;;;333.10;972.80;;;;;;5060249;28;20024;-66
2021/03/20 11:59:49;;;;;;;23.20;16.50;;;333.10;972.80;;;;;;5057795;28;20085;-71
2021/03/20 12:02:24;;;;;;;22.73;16.67;;;333.30;972.80;;;;;;5065055;28;20396;-67
2021/03/20 12:05:05;;;;;;;24.10;16.55;;;333.30;972.80;;;;;;5073104;28;20082;-66
2021/03/20 12:07:31;;;;;;;27.23;16.10;;;333.30;947.20;;;;;;5073013;28;20016;-67
2021/03/20 12:10:31;;;;;;;24.60;13.93;;;333.30;947.20;;;;;;5068770;28;20048;-68
2021/03/20 12:12:58;;;;;;;21.63;14.82;;;333.30;947.20;;;;;;5064646;28;20381;-77
2021/03/20 12:15:26;;;;;;;21.52;15.02;;;333.20;972.80;;;;;;5073350;28;20363;-67
2021/03/20 12:17:52;;;;;;;21.67;16.27;;;333.10;972.80;;;;;;5076214;28;20048;-71
2021/03/20 12:20:42;;;;;;;26.42;17.70;;;333.10;947.20;;;;;;5072746;28;20020;-69
2021/03/20 12:23:22;;;;;;;27.25;18.77;;;333.10;947.20;;;;;;5067517;28;20051;-73
2021/03/20 12:25:59;;;;;;;22.98;16.25;;;333.00;972.80;;;;;;5072451;28;20031;-78
2021/03/20 12:28:38;;;;;;;64.43;32.40;;;333.00;947.20;;;;;;5071040;28;20195;-69
2021/03/20 12:31:16;;;;;;;28.13;17.92;;;332.90;972.80;;;;;;5086611;28;20036;-66
2021/03/20 12:34:22;;;;;;;16.58;12.90;;;332.80;972.80;;;;;;5093017;28;20086;-70
2021/03/20 12:36:50;;;;;;;21.75;13.20;;;308.10;921.60;;;;;;4990812;28;20038;-71
2021/03/20 12:39:22;;;;;;;22.58;15.35;;;308.00;947.20;;;;;;4990847;28;20515;-75
2021/03/20 12:41:50;;;;;;;25.05;15.23;;;307.90;947.20;;;;;;4966711;28;20503;-65
2021/03/20 12:44:23;;;;;;;16.75;12.85;;;307.90;947.20;;;;;;4971028;28;20523;-65
2021/03/20 12:47:03;;;;;;;18.02;12.60;;;307.90;921.60;;;;;;4974828;28;20066;-71
2021/03/20 12:49:35;;;;;;;26.25;16.27;;;307.80;921.60;;;;;;4972752;28;20070;-65